Time;durP1;ratioP1;P1;durP2;ratioP2;P2;SDS_P1;SDS_P2;PMS_P1;PMS_P2;Temp;Humidity;BMP_temperature;BMP_pressure;BME280_temperature;BME280_humidity;BME280_pressure;Samples;Min_cycle;Max_cycle;Signal;HPM_P1;HPM_P2
2022/07/15 00:00:08;;;;;;;2.78;1.73;;;;;;;17.12;57.82;100803.94;5046617;28;20501;-65
2022/07/15 00:02:36;;;;;;;3.75;1.70;;;;;;;17.10;58.06;100803.47;5050337;28;20051;-66
2022/07/15 00:05:03;;;;;;;6.38;2.00;;;;;;;17.17;58.07;100794.41;5041527;28;20497;-63
2022/07/15 00:07:32;;;;;;;3.35;1.60;;;;;;;17.19;57.68;100804.16;5051300;28;20048;-65
2022/07/15 00:10:14;;;;;;;3.40;1.67;;;;;;;17.21;57.87;100801.00;5038192;28;20057;-66
2022/07/15 00:12:42;;;;;;;2.45;1.42;;;;;;;17.22;57.57;100802.66;5046927;28;20060;-66
2022/07/15 00:15:11;;;;;;;3.95;1.92;;;;;;;17.21;58.02;100804.63;5039478;28;20056;-66
2022/07/15 00:17:39;;;;;;;3.67;1.63;;;;;;;17.20;58.11;100803.00;5048787;28;20053;-66
2022/07/15 00:20:07;;;;;;;4.53;1.88;;;;;;;17.25;58.50;100797.13;5040769;28;20049;-66
2022/07/15 00:22:36;;;;;;;5.05;1.70;;;;;;;17.25;58.50;100805.56;5054614;28;20053;-66
2022/07/15 00:25:04;;;;;;;6.73;1.80;;;;;;;17.31;58.31;100802.53;5044214;28;20072;-66
2022/07/15 00:27:31;;;;;;;4.35;1.77;;;;;;;17.37;58.24;100796.31;5050864;28;20594;-66
2022/07/15 00:29:59;;;;;;;4.40;1.67;;;;;;;17.44;58.29;100802.16;5054456;28;20049;-66
2022/07/15 00:32:26;;;;;;;3.45;1.90;;;;;;;17.50;58.08;100804.75;5052794;28;20052;-66
2022/07/15 00:34:53;;;;;;;2.38;1.50;;;;;;;17.57;57.71;100788.88;5054313;28;20064;-66
2022/07/15 00:37:21;;;;;;;5.13;2.08;;;;;;;17.63;57.55;100795.09;5047322;28;20049;-66
2022/07/15 00:39:50;;;;;;;4.90;2.03;;;;;;;17.67;57.71;100790.41;5046725;28;20053;-66
2022/07/15 00:44:58;;;;;;;3.92;1.85;;;;;;;17.74;57.26;100796.25;5029395;28;20057;-66
2022/07/15 00:47:25;;;;;;;4.00;2.00;;;;;;;17.61;57.75;100800.25;5051387;28;20057;-66
2022/07/15 00:49:53;;;;;;;3.20;1.70;;;;;;;17.62;57.69;100783.00;5046019;28;20160;-67
2022/07/15 00:52:22;;;;;;;4.43;2.13;;;;;;;17.60;57.84;100793.81;5040963;28;20512;-65
2022/07/15 00:54:52;;;;;;;3.95;2.10;;;;;;;17.62;58.12;100794.28;5044720;28;20068;-66
2022/07/15 00:57:22;;;;;;;4.32;2.00;;;;;;;17.64;57.83;100785.50;5045828;28;20123;-66
2022/07/15 00:59:49;;;;;;;;;;;;;;;17.59;58.18;100785.72;5045382;28;20049;-66
2022/07/15 01:02:16;;;;;;;4.60;2.50;;;;;;;17.58;58.01;100789.72;5053496;28;19921;-66
2022/07/15 01:04:45;;;;;;;5.00;3.00;;;;;;;17.58;57.90;100790.53;5042598;28;20053;-66
2022/07/15 01:07:13;;;;;;;5.55;2.60;;;;;;;17.54;58.11;100783.97;5052236;28;20080;-66
2022/07/15 01:09:40;;;;;;;5.03;2.60;;;;;;;17.55;58.37;100788.41;5038915;28;20049;-66
2022/07/15 01:12:09;;;;;;;4.22;2.80;;;;;;;17.60;58.59;100790.19;5026633;28;20057;-65
2022/07/15 01:14:36;;;;;;;3.63;2.50;;;;;;;17.61;58.53;100789.81;5044136;28;20050;-65
2022/07/15 01:17:09;;;;;;;4.63;2.85;;;;;;;17.64;58.45;100797.56;5038311;28;20483;-66
2022/07/15 01:19:37;;;;;;;7.35;2.80;;;;;;;17.60;58.39;100793.81;5047834;28;20056;-66
2022/07/15 01:22:07;;;;;;;9.02;3.63;;;;;;;17.56;58.71;100800.53;5050037;28;20053;-66
2022/07/15 01:24:34;;;;;;;4.38;3.00;;;;;;;17.56;58.73;100787.25;5047986;28;20056;-66
2022/07/15 01:27:02;;;;;;;4.32;2.45;;;;;;;17.58;58.90;100792.53;5049002;28;20053;-66
2022/07/15 01:29:29;;;;;;;7.00;3.30;;;;;;;17.61;58.86;100794.63;5051564;28;20447;-66
2022/07/15 01:31:57;;;;;;;6.65;3.00;;;;;;;17.56;58.84;100800.53;5046536;28;20060;-66
2022/07/15 01:34:24;;;;;;;6.43;2.45;;;;;;;17.58;59.08;100798.16;5050539;28;20048;-66
2022/07/15 01:36:51;;;;;;;6.10;3.70;;;;;;;17.49;59.23;100800.28;5038190;28;20049;-66
2022/07/15 01:39:20;;;;;;;5.50;2.90;;;;;;;17.54;59.26;100803.69;5047759;28;20056;-66
2022/07/15 01:41:47;;;;;;;4.90;2.97;;;;;;;17.59;59.50;100805.44;5048563;28;20056;-66
2022/07/15 01:44:15;;;;;;;5.72;3.20;;;;;;;17.60;59.49;100802.28;5045056;28;20081;-66
2022/07/15 01:46:42;;;;;;;4.57;2.63;;;;;;;17.62;59.20;100801.91;5033410;28;20057;-65
2022/07/15 01:49:26;;;;;;;4.50;2.75;;;;;;;17.63;59.56;100806.38;5050207;28;20531;-65
2022/07/15 01:51:55;;;;;;;5.65;3.08;;;;;;;17.64;59.30;100803.19;5048426;28;20079;-66
2022/07/15 01:54:25;;;;;;;5.82;2.97;;;;;;;17.67;58.93;100806.47;5045898;28;20057;-66
2022/07/15 01:56:54;;;;;;;5.03;2.60;;;;;;;17.69;59.31;100804.13;5048614;28;20052;-66
2022/07/15 01:59:23;;;;;;;8.15;2.30;;;;;;;17.70;58.79;100806.59;5038552;28;20060;-66
2022/07/15 02:01:52;;;;;;;3.88;2.50;;;;;;;17.66;58.37;100805.69;5048602;28;20049;-66
2022/07/15 02:04:21;;;;;;;5.30;2.67;;;;;;;17.68;57.83;100808.97;5035699;28;20045;-67
2022/07/15 02:06:48;;;;;;;4.63;2.08;;;;;;;17.65;57.89;100809.66;5042652;28;20053;-65
2022/07/15 02:09:16;;;;;;;4.28;1.85;;;;;;;17.62;57.93;100822.44;5047919;28;20060;-65
2022/07/15 02:11:45;;;;;;;5.72;2.42;;;;;;;17.63;57.50;100817.63;5048388;28;20380;-66
2022/07/15 02:14:12;;;;;;;4.72;1.90;;;;;;;17.63;57.39;100806.38;5043379;28;20053;-65
2022/07/15 02:16:40;;;;;;;6.03;1.95;;;;;;;17.61;57.56;100811.53;5042261;28;20057;-66
2022/07/15 02:19:08;;;;;;;4.25;1.60;;;;;;;17.60;57.52;100812.72;5048975;28;20053;-66
2022/07/15 02:21:36;;;;;;;3.60;1.98;;;;;;;17.60;57.43;100816.34;5046139;28;20049;-66
2022/07/15 02:24:05;;;;;;;3.97;2.08;;;;;;;17.60;57.33;100815.53;5048325;28;20079;-65
2022/07/15 02:26:33;;;;;;;3.33;1.77;;;;;;;17.59;57.46;100808.25;5045863;28;20624;-65
2022/07/15 02:29:02;;;;;;;3.92;1.80;;;;;;;17.63;57.40;100812.81;5050643;28;20401;-65
2022/07/15 02:31:29;;;;;;;4.47;2.10;;;;;;;17.65;57.27;100806.84;5051063;28;20053;-66
2022/07/15 02:33:57;;;;;;;7.18;2.03;;;;;;;17.66;57.02;100805.69;5051400;28;20596;-65
2022/07/15 02:36:24;;;;;;;6.13;2.20;;;;;;;17.69;57.11;100809.78;5036408;28;20052;-65
2022/07/15 02:38:52;;;;;;;5.80;2.10;;;;;;;17.69;57.05;100810.59;5049597;28;20057;-64
2022/07/15 02:41:19;;;;;;;4.35;1.70;;;;;;;17.68;57.21;100802.47;5049215;28;20402;-65
2022/07/15 02:43:46;;;;;;;8.23;2.28;;;;;;;17.69;57.14;100804.94;5051893;28;20507;-66
2022/07/15 02:46:15;;;;;;;4.90;1.80;;;;;;;17.69;57.28;100809.78;5028929;28;20061;-66
2022/07/15 02:48:42;;;;;;;5.63;2.13;;;;;;;17.70;57.47;100814.22;5042732;28;20053;-66
2022/07/15 02:51:10;;;;;;;5.15;2.05;;;;;;;17.73;57.32;100800.25;5043002;28;20486;-65
2022/07/15 02:53:38;;;;;;;5.30;2.00;;;;;;;17.75;57.08;100803.53;5049971;28;20123;-65
2022/07/15 02:56:07;;;;;;;6.45;2.28;;;;;;;17.75;57.21;100814.81;5043627;28;20048;-66
2022/07/15 02:58:34;;;;;;;5.75;2.30;;;;;;;17.78;57.18;100816.91;5050659;28;20064;-65
2022/07/15 03:01:02;;;;;;;6.28;2.50;;;;;;;17.76;57.09;100819.25;5038666;28;20504;-66
2022/07/15 03:03:30;;;;;;;6.43;2.38;;;;;;;17.76;56.99;100818.44;5043713;28;20057;-66
2022/07/15 03:05:59;;;;;;;4.17;2.00;;;;;;;17.73;57.15;100819.97;5043434;28;20049;-66
2022/07/15 03:08:26;;;;;;;7.60;1.90;;;;;;;17.72;57.28;100815.50;5049123;28;20478;-65
2022/07/15 03:10:53;;;;;;;4.65;2.25;;;;;;;17.74;57.00;100813.16;5039370;28;20405;-66
2022/07/15 03:13:21;;;;;;;4.40;2.00;;;;;;;17.68;57.30;100825.03;5051079;28;20064;-66
2022/07/15 03:15:48;;;;;;;3.75;2.10;;;;;;;17.69;57.03;100824.66;5036356;28;20064;-66
2022/07/15 03:18:15;;;;;;;4.13;1.88;;;;;;;17.65;57.18;100830.19;5051219;28;20475;-65
2022/07/15 03:20:45;;;;;;;7.13;2.10;;;;;;;17.64;57.13;100834.19;5042117;28;20053;-65
2022/07/15 03:23:13;;;;;;;6.75;2.35;;;;;;;17.65;57.57;100844.28;5045841;28;20048;-66
2022/07/15 03:25:40;;;;;;;5.43;2.20;;;;;;;17.65;57.70;100849.09;5043279;28;20053;-66
2022/07/15 03:28:07;;;;;;;5.28;2.38;;;;;;;17.63;57.73;100845.81;5045215;28;20049;-65
2022/07/15 03:30:35;;;;;;;6.35;2.30;;;;;;;17.62;57.99;100845.00;5031625;28;20064;-65
2022/07/15 03:33:02;;;;;;;4.97;2.10;;;;;;;17.62;57.83;100850.63;5043138;28;20470;-65
2022/07/15 03:35:29;;;;;;;4.45;2.05;;;;;;;17.63;57.67;100848.63;5043115;28;20049;-66
2022/07/15 03:37:58;;;;;;;6.05;2.05;;;;;;;17.61;57.30;100859.41;5044250;28;20064;-66
2022/07/15 03:40:26;;;;;;;4.57;2.05;;;;;;;17.56;57.64;100852.03;5041548;28;20060;-66
2022/07/15 03:42:53;;;;;;;6.13;2.33;;;;;;;17.53;57.74;100861.16;5049769;28;20045;-66
2022/07/15 03:45:20;;;;;;;6.10;2.05;;;;;;;17.48;57.58;100861.41;5042765;28;20051;-65
2022/07/15 03:47:47;;;;;;;7.47;2.30;;;;;;;17.44;57.66;100861.28;5049506;28;20596;-64
2022/07/15 03:50:15;;;;;;;6.95;2.30;;;;;;;17.37;57.80;100866.69;5042343;28;20064;-66
2022/07/15 03:52:42;;;;;;;8.57;2.13;;;;;;;17.28;58.18;100867.97;5051300;28;20053;-66
2022/07/15 03:55:11;;;;;;;6.10;2.15;;;;;;;17.20;58.50;100878.19;5038063;28;20057;-66
2022/07/15 03:57:39;;;;;;;6.72;2.20;;;;;;;17.13;58.71;100877.91;5050986;28;20064;-65
2022/07/15 04:00:08;;;;;;;6.82;2.30;;;;;;;17.04;59.10;100880.84;5040606;28;20064;-66
2022/07/15 04:02:35;;;;;;;6.05;2.33;;;;;;;17.00;59.19;100882.72;5046190;28;20057;-66
2022/07/15 04:05:03;;;;;;;7.07;2.45;;;;;;;16.96;59.26;100887.38;5043300;28;20054;-65
2022/07/15 04:07:30;;;;;;;4.53;2.15;;;;;;;16.94;59.20;100890.53;5049371;28;20385;-66
2022/07/15 04:09:57;;;;;;;5.10;2.10;;;;;;;16.91;59.51;100887.63;5042874;28;20405;-66
2022/07/15 04:12:26;;;;;;;5.97;2.65;;;;;;;16.90;59.46;100892.41;5048984;28;20505;-66
2022/07/15 04:14:53;;;;;;;5.30;2.53;;;;;;;16.88;59.57;100897.56;5043389;28;20045;-66
2022/07/15 04:17:21;;;;;;;7.03;2.30;;;;;;;16.87;59.70;100898.75;5041921;28;20167;-66
2022/07/15 04:19:48;;;;;;;7.68;2.47;;;;;;;16.83;59.71;100897.78;5033917;28;20050;-66
2022/07/15 04:22:16;;;;;;;5.50;2.22;;;;;;;16.81;59.93;100906.56;5054251;28;20057;-66
2022/07/15 04:24:43;;;;;;;4.70;1.95;;;;;;;16.83;59.82;100907.03;5034749;28;20057;-66
2022/07/15 04:27:11;;;;;;;6.28;2.47;;;;;;;16.83;59.75;100911.84;5033686;28;20064;-66
2022/07/15 04:29:39;;;;;;;7.90;3.33;;;;;;;16.80;60.02;100909.72;5034417;28;20080;-66
2022/07/15 04:32:07;;;;;;;4.85;2.25;;;;;;;16.81;60.09;100909.38;5034657;28;20064;-66
2022/07/15 04:34:34;;;;;;;8.07;2.20;;;;;;;16.79;60.22;100919.31;5035077;28;20053;-66
2022/07/15 04:37:02;;;;;;;5.80;2.30;;;;;;;16.80;60.18;100923.78;5044742;28;20413;-66
2022/07/15 04:39:29;;;;;;;6.65;2.15;;;;;;;16.79;60.37;100924.94;5049254;28;20060;-66
2022/07/15 04:41:56;;;;;;;3.92;2.10;;;;;;;16.82;60.32;100925.09;5051327;28;20056;-66
2022/07/15 04:44:24;;;;;;;6.43;2.55;;;;;;;16.86;60.45;100925.22;5049802;28;20451;-66
2022/07/15 04:46:52;;;;;;;7.68;2.47;;;;;;;16.90;60.52;100930.97;5050424;28;20045;-67
2022/07/15 04:52:05;;;;;;;7.32;2.88;;;;;;;17.03;60.06;100933.50;5058357;28;20060;-67
2022/07/15 04:54:32;;;;;;;6.15;2.50;;;;;;;17.09;60.04;100927.63;5048001;28;20054;-66
2022/07/15 04:56:59;;;;;;;6.22;2.97;;;;;;;17.21;59.88;100933.31;5051318;28;20060;-66
2022/07/15 04:59:27;;;;;;;4.80;2.20;;;;;;;17.30;59.67;100934.03;5049011;28;20406;-66
2022/07/15 05:01:56;;;;;;;8.30;2.95;;;;;;;17.41;59.38;100931.59;5046097;28;20057;-66
2022/07/15 05:04:23;;;;;;;7.57;2.77;;;;;;;17.50;58.87;100937.94;5047904;28;20398;-65
2022/07/15 05:06:50;;;;;;;6.97;2.75;;;;;;;17.62;58.57;100939.97;5045195;28;20045;-66
2022/07/15 05:09:18;;;;;;;6.63;2.72;;;;;;;17.66;58.54;100935.25;5030434;28;20054;-66
2022/07/15 05:11:45;;;;;;;8.38;2.72;;;;;;;17.73;58.64;100940.31;5045048;28;20049;-66
2022/07/15 05:14:12;;;;;;;6.88;2.90;;;;;;;17.73;59.01;100943.13;5034864;28;20053;-66
2022/07/15 05:16:39;;;;;;;6.47;2.75;;;;;;;17.67;58.35;100936.91;5027713;28;20049;-66
2022/07/15 05:19:09;;;;;;;8.02;2.95;;;;;;;17.80;58.10;100940.53;5040633;28;20064;-66
2022/07/15 05:21:36;;;;;;;7.85;3.13;;;;;;;17.82;57.95;100930.56;5037750;28;20048;-65
2022/07/15 05:24:05;;;;;;;6.40;2.97;;;;;;;17.88;58.00;100936.00;5039821;28;20057;-65
2022/07/15 05:26:32;;;;;;;8.55;4.10;;;;;;;17.88;57.86;100938.81;5038814;28;20072;-65
2022/07/15 05:28:59;;;;;;;6.88;2.85;;;;;;;17.88;57.18;100933.19;5045771;28;20072;-65
2022/07/15 05:31:27;;;;;;;5.13;2.30;;;;;;;17.87;56.82;100945.59;5043868;28;20061;-65
2022/07/15 05:33:54;;;;;;;6.50;2.75;;;;;;;17.83;58.17;100943.50;5039932;28;20064;-55
2022/07/15 05:36:23;;;;;;;4.80;2.60;;;;;;;17.80;57.67;100946.97;5037113;28;20068;-56
2022/07/15 05:38:52;;;;;;;7.63;2.77;;;;;;;17.83;57.34;100946.31;5048650;28;20053;-55
2022/07/15 05:41:19;;;;;;;7.90;2.65;;;;;;;17.74;57.00;100941.94;5048137;28;20061;-56
2022/07/15 05:43:47;;;;;;;8.05;3.13;;;;;;;17.76;56.90;100945.22;5043812;28;20063;-57
2022/07/15 05:46:14;;;;;;;4.68;2.40;;;;;;;17.84;57.49;100942.31;5038037;28;20059;-56
2022/07/15 05:48:41;;;;;;;6.10;2.63;;;;;;;17.93;56.87;100945.03;5041385;28;20055;-56
2022/07/15 05:51:09;;;;;;;6.90;2.58;;;;;;;18.04;56.42;100946.19;5034261;28;20056;-56
2022/07/15 05:53:37;;;;;;;8.73;3.15;;;;;;;17.79;57.07;100948.16;5040083;28;20053;-56
2022/07/15 05:56:06;;;;;;;7.73;3.10;;;;;;;17.64;57.44;100957.31;5033474;28;20056;-56
2022/07/15 05:58:33;;;;;;;10.00;3.55;;;;;;;17.78;57.19;100952.16;5041138;28;20068;-55
2022/07/15 06:01:00;;;;;;;7.75;2.85;;;;;;;17.77;57.07;100950.53;5032437;28;20049;-56
2022/07/15 06:03:28;;;;;;;8.25;3.00;;;;;;;17.69;57.08;100953.44;5030612;28;20052;-56
2022/07/15 06:05:55;;;;;;;9.13;3.25;;;;;;;17.91;56.70;100950.22;5033719;28;20064;-56
2022/07/15 06:08:22;;;;;;;6.50;2.72;;;;;;;18.17;55.82;100949.81;5044650;28;20076;-56
2022/07/15 06:10:51;;;;;;;9.05;2.90;;;;;;;17.98;55.92;100946.78;5032347;28;20470;-56
2022/07/15 06:13:20;;;;;;;6.63;2.70;;;;;;;17.94;55.78;100952.31;5039097;28;20053;-56
2022/07/15 06:15:48;;;;;;;8.57;2.80;;;;;;;18.18;55.49;100951.44;5030604;28;20049;-56
2022/07/15 06:18:15;;;;;;;8.43;3.25;;;;;;;18.37;55.12;100959.31;5039463;28;20072;-56
2022/07/15 06:20:42;;;;;;;6.63;2.78;;;;;;;18.64;54.05;100951.22;5033225;28;20690;-56
2022/07/15 06:23:10;;;;;;;5.80;2.58;;;;;;;18.50;54.41;100960.09;5041480;28;20468;-55
2022/07/15 06:25:37;;;;;;;7.75;2.25;;;;;;;18.39;53.60;100951.28;5029161;28;20052;-56
2022/07/15 06:28:06;;;;;;;6.78;2.63;;;;;;;18.37;53.66;100952.84;5040517;28;20076;-55
2022/07/15 06:30:33;;;;;;;7.70;2.67;;;;;;;18.43;52.45;100951.41;5040884;28;20061;-57
2022/07/15 06:33:01;;;;;;;10.02;2.88;;;;;;;18.34;52.43;100953.56;5039828;28;20049;-57
2022/07/15 06:35:28;;;;;;;7.82;2.20;;;;;;;17.99;53.98;100954.06;5032253;28;20128;-57
2022/07/15 06:37:55;;;;;;;9.32;2.38;;;;;;;17.79;55.38;100951.00;5036891;28;20056;-57
2022/07/15 06:40:22;;;;;;;5.50;1.98;;;;;;;18.16;53.99;100941.72;5037191;28;20052;-57
2022/07/15 06:42:50;;;;;;;6.50;1.95;;;;;;;17.97;54.44;100939.50;5036984;28;20060;-57
2022/07/15 06:45:19;;;;;;;6.35;1.80;;;;;;;18.33;52.90;100941.47;5037322;28;20068;-57
2022/07/15 06:47:46;;;;;;;5.25;1.67;;;;;;;18.65;51.19;100933.94;5038932;28;20077;-57
2022/07/15 06:50:14;;;;;;;5.22;1.45;;;;;;;18.83;49.64;100930.84;5024845;28;20057;-57
2022/07/15 06:52:42;;;;;;;4.18;1.58;;;;;;;18.96;49.35;100928.78;5038884;28;20057;-57
2022/07/15 06:55:11;;;;;;;4.43;1.45;;;;;;;19.11;47.94;100939.31;5027226;28;20099;-66
2022/07/15 06:57:40;;;;;;;5.18;1.40;;;;;;;19.25;47.32;100933.22;5038959;28;20056;-66
2022/07/15 07:00:09;;;;;;;6.80;1.80;;;;;;;19.40;46.69;100938.09;5044180;28;20422;-66
2022/07/15 07:02:38;;;;;;;4.15;1.38;;;;;;;19.56;46.24;100934.44;5037879;28;20065;-66
2022/07/15 07:05:06;;;;;;;5.20;1.80;;;;;;;19.67;45.15;100939.19;5037489;28;20056;-66
2022/07/15 07:07:34;;;;;;;6.57;1.98;;;;;;;19.74;45.38;100940.56;5033020;28;20049;-67
2022/07/15 07:10:01;;;;;;;5.45;1.58;;;;;;;19.96;44.86;100941.91;5034456;28;20478;-66
2022/07/15 07:12:28;;;;;;;5.53;1.80;;;;;;;20.23;44.18;100932.44;5041860;28;20049;-67
2022/07/15 07:14:55;;;;;;;6.97;1.52;;;;;;;20.32;43.52;100928.59;5029672;28;20069;-67
2022/07/15 07:17:23;;;;;;;3.95;1.35;;;;;;;20.37;42.09;100934.78;5041168;28;20052;-66
2022/07/15 07:19:51;;;;;;;2.85;1.20;;;;;;;20.42;40.87;100937.31;5038575;28;20057;-66
2022/07/15 07:22:19;;;;;;;3.03;1.37;;;;;;;20.62;40.97;100934.53;5032306;28;20052;-65
2022/07/15 07:24:46;;;;;;;3.05;1.20;;;;;;;20.74;40.39;100942.88;5033450;28;20507;-64
2022/07/15 07:27:13;;;;;;;6.65;1.73;;;;;;;20.81;40.26;100943.03;5032548;28;20056;-67
2022/07/15 07:29:42;;;;;;;4.50;1.50;;;;;;;20.79;39.93;100939.75;5039907;28;20403;-66
2022/07/15 07:32:09;;;;;;;4.57;1.38;;;;;;;20.85;40.18;100943.09;5036053;28;20059;-67
2022/07/15 07:34:37;;;;;;;4.65;1.25;;;;;;;21.01;39.81;100943.84;5038298;28;20061;-66
2022/07/15 07:37:05;;;;;;;4.82;1.58;;;;;;;21.14;40.21;100944.47;5028720;28;20064;-66
2022/07/15 07:39:33;;;;;;;3.03;1.20;;;;;;;21.34;39.70;100942.44;5046111;28;20064;-67
2022/07/15 07:42:00;;;;;;;3.97;1.42;;;;;;;21.56;39.35;100932.31;5037055;28;20415;-67
2022/07/15 07:44:27;;;;;;;4.68;1.67;;;;;;;21.67;39.14;100941.84;5039355;28;20061;-66
2022/07/15 07:46:55;;;;;;;3.47;1.20;;;;;;;21.93;37.70;100936.59;5038467;28;20054;-66
2022/07/15 07:49:22;;;;;;;5.82;1.50;;;;;;;22.20;37.23;100937.41;5041340;28;20409;-66
2022/07/15 07:51:49;;;;;;;4.97;1.45;;;;;;;22.55;36.43;100941.97;5037428;28;20053;-65
2022/07/15 07:54:18;;;;;;;6.78;1.70;;;;;;;22.72;36.51;100940.56;5042804;28;20054;-67
2022/07/15 07:56:46;;;;;;;5.03;1.40;;;;;;;23.10;35.79;100937.41;5035556;28;20068;-66
2022/07/15 07:59:13;;;;;;;4.72;1.15;;;;;;;24.03;34.08;100936.66;5033361;28;20061;-66
2022/07/15 08:01:40;;;;;;;3.45;1.20;;;;;;;24.25;33.56;100938.44;5049615;28;20049;-66
2022/07/15 08:04:08;;;;;;;3.10;1.38;;;;;;;24.45;32.89;100943.81;5034723;28;20060;-66
2022/07/15 08:06:38;;;;;;;3.53;1.50;;;;;;;24.56;32.91;100941.88;5039538;28;20048;-65
2022/07/15 08:09:06;;;;;;;4.20;1.50;;;;;;;24.70;32.63;100936.25;5047931;28;20053;-66
2022/07/15 08:11:34;;;;;;;3.70;1.20;;;;;;;24.78;32.36;100939.94;5046968;28;20057;-66
2022/07/15 08:14:01;;;;;;;4.00;1.30;;;;;;;25.10;31.93;100940.06;5049540;28;20060;-66
2022/07/15 08:16:29;;;;;;;5.80;1.50;;;;;;;25.34;31.67;100936.88;5027674;28;20403;-66
2022/07/15 08:18:57;;;;;;;6.07;1.27;;;;;;;25.28;31.12;100945.00;5048709;28;20397;-66
2022/07/15 08:21:24;;;;;;;4.97;1.10;;;;;;;25.39;31.42;100943.00;5045021;28;20072;-66
2022/07/15 08:23:51;;;;;;;4.20;1.40;;;;;;;26.34;30.61;100942.56;5051649;28;20423;-66
2022/07/15 08:26:23;;;;;;;4.75;1.67;;;;;;;26.88;29.62;100937.50;5050159;28;20490;-66
2022/07/15 08:28:52;;;;;;;4.00;1.27;;;;;;;27.25;28.99;100946.72;5051881;28;20742;-66
2022/07/15 08:31:20;;;;;;;;;;;;;;;27.38;28.85;100947.88;5053158;28;20067;-66
2022/07/15 08:33:47;;;;;;;3.25;1.00;;;;;;;27.38;28.33;100947.06;5046658;28;19928;-66
2022/07/15 08:36:14;;;;;;;2.28;1.00;;;;;;;27.19;28.51;100948.38;5036297;28;20049;-66
2022/07/15 08:38:42;;;;;;;4.03;1.42;;;;;;;27.29;28.63;100941.81;5047113;28;20041;-66
2022/07/15 08:41:09;;;;;;;6.18;1.30;;;;;;;27.03;29.04;100955.41;5034738;28;20060;-66
2022/07/15 08:43:36;;;;;;;3.38;1.48;;;;;;;27.08;28.57;100951.28;5051148;28;20443;-66
2022/07/15 08:46:07;;;;;;;3.20;1.45;;;;;;;26.92;28.93;100954.63;5035707;28;20069;-66
2022/07/15 08:48:38;;;;;;;3.92;1.10;;;;;;;26.66;29.44;100958.84;5051023;28;20065;-65
2022/07/15 08:51:07;;;;;;;4.13;1.48;;;;;;;26.24;29.87;100952.78;5035687;28;20049;-66
2022/07/15 08:53:34;;;;;;;3.78;1.48;;;;;;;25.97;30.08;100957.31;5050452;28;20493;-65
2022/07/15 08:56:02;;;;;;;5.18;1.38;;;;;;;25.55;30.78;100950.34;5043778;28;20485;-66
2022/07/15 08:58:29;;;;;;;4.93;1.20;;;;;;;25.26;31.33;100959.69;5049761;28;20053;-66
2022/07/15 09:00:57;;;;;;;4.20;1.20;;;;;;;24.75;32.09;100954.97;5041983;28;20049;-66
2022/07/15 09:03:25;;;;;;;3.55;1.02;;;;;;;24.72;31.84;100955.78;5049635;28;20048;-66
2022/07/15 09:05:53;;;;;;;3.60;1.10;;;;;;;24.51;32.45;100959.34;5025298;28;20491;-65
2022/07/15 09:08:20;;;;;;;4.50;1.35;;;;;;;24.42;32.86;100958.84;5051818;28;20069;-66
2022/07/15 09:10:50;;;;;;;6.65;1.40;;;;;;;24.43;33.56;100954.81;5043309;28;20053;-66
2022/07/15 09:13:27;;;;;;;5.07;1.80;;;;;;;25.23;32.33;100956.81;5048632;28;20049;-66
2022/07/15 09:15:56;;;;;;;3.70;1.40;;;;;;;27.68;29.97;100946.44;5025249;28;20394;-66
2022/07/15 09:18:27;;;;;;;4.20;1.52;;;;;;;29.71;26.58;100944.47;5040489;28;20063;-66
2022/07/15 09:20:55;;;;;;;9.88;2.38;;;;;;;30.98;25.07;100938.81;5040675;28;20052;-66
2022/07/15 09:23:29;;;;;;;3.17;1.30;;;;;;;31.15;23.18;100937.59;5048955;28;20413;-66
2022/07/15 09:25:58;;;;;;;3.67;1.23;;;;;;;30.83;23.25;100943.22;5042639;28;20056;-66
2022/07/15 09:28:38;;;;;;;4.10;1.45;;;;;;;30.78;23.61;100937.97;5032431;28;20068;-66
2022/07/15 09:34:00;;;;;;;2.30;1.10;;;;;;;30.11;24.63;100933.09;5030505;28;20072;-66
2022/07/15 09:36:29;;;;;;;2.60;1.50;;;;;;;30.33;24.97;100942.16;5029715;28;20049;-64
2022/07/15 09:38:58;;;;;;;3.17;1.80;;;;;;;32.57;23.01;100930.75;5030586;28;20053;-67
2022/07/15 09:41:30;;;;;;;3.63;1.30;;;;;;;33.90;21.47;100932.34;5020457;28;20057;-66
2022/07/15 09:44:01;;;;;;;4.10;1.67;;;;;;;34.00;20.89;100927.47;5022544;28;20503;-65
2022/07/15 09:46:30;;;;;;;6.22;1.70;;;;;;;33.39;21.44;100930.31;5023472;28;20410;-65
2022/07/15 09:48:59;;;;;;;3.22;1.40;;;;;;;32.72;22.49;100934.81;5032095;28;20058;-66
2022/07/15 09:51:26;;;;;;;;;;;;;;;32.20;22.56;100938.75;5033256;28;20513;-66
2022/07/15 09:53:53;;;;;;;4.35;2.30;;;;;;;33.13;22.19;100924.50;5030836;28;19927;-64
2022/07/15 09:56:23;;;;;;;4.65;1.30;;;;;;;34.06;21.23;100926.41;5022357;28;20439;-65
2022/07/15 09:58:51;;;;;;;3.13;1.40;;;;;;;34.30;20.29;100918.13;5012785;28;20054;-65
2022/07/15 10:01:19;;;;;;;4.82;1.50;;;;;;;33.71;21.39;100929.25;5017424;28;20045;-64
2022/07/15 10:03:47;;;;;;;3.50;1.30;;;;;;;33.19;21.43;100938.38;5027534;28;20080;-65
2022/07/15 10:06:16;;;;;;;3.55;1.20;;;;;;;32.44;21.53;100915.41;5021405;28;20849;-65
2022/07/15 10:08:48;;;;;;;4.07;1.25;;;;;;;31.61;22.57;100929.13;5025143;28;20045;-65
2022/07/15 10:11:16;;;;;;;4.10;1.10;;;;;;;30.79;23.85;100936.72;5032037;28;20056;-62
2022/07/15 10:14:08;;;;;;;3.35;1.55;;;;;;;31.74;23.45;100932.09;5030099;28;20127;-65
2022/07/15 10:17:32;;;;;;;2.58;1.55;;;;;;;33.29;22.23;100922.81;5013950;28;20054;-66
2022/07/15 10:20:32;;;;;;;3.58;1.48;;;;;;;34.50;20.08;100923.63;5023072;28;20056;-66
2022/07/15 10:23:13;;;;;;;6.10;1.73;;;;;;;36.81;18.11;100921.44;5025621;28;20080;-66
2022/07/15 10:25:56;;;;;;;3.90;1.95;;;;;;;38.52;16.83;100911.19;5032299;28;20116;-65
2022/07/15 10:28:38;;;;;;;4.60;1.75;;;;;;;39.06;16.31;100911.13;5030541;28;20045;-66
2022/07/15 10:31:17;;;;;;;4.88;1.50;;;;;;;38.93;16.02;100907.66;5032227;28;20056;-66
2022/07/15 10:34:21;;;;;;;3.58;1.50;;;;;;;37.79;16.37;100915.44;5025768;28;20053;-66
2022/07/15 10:37:06;;;;;;;4.15;1.83;;;;;;;37.86;16.10;100905.53;5023407;28;20065;-65
2022/07/15 10:39:55;;;;;;;4.68;1.10;;;;;;;37.10;17.27;100912.19;5031955;28;20056;-66
2022/07/15 10:42:22;;;;;;;4.18;1.73;;;;;;;36.77;17.45;100904.22;5023647;28;20061;-66
2022/07/15 10:45:08;;;;;;;2.60;1.30;;;;;;;35.92;17.77;100908.88;5029376;28;20053;-65
2022/07/15 10:47:35;;;;;;;3.28;1.42;;;;;;;34.78;19.61;100917.25;5030787;28;20053;-65
2022/07/15 10:50:37;;;;;;;5.43;1.55;;;;;;;33.55;20.76;100918.63;5031455;28;20053;-66
2022/07/15 10:53:20;;;;;;;3.78;1.20;;;;;;;32.63;21.52;100910.78;5018592;28;20049;-65
2022/07/15 10:55:49;;;;;;;5.10;2.10;;;;;;;31.92;22.14;100915.16;5028490;28;20052;-66
2022/07/15 10:58:17;;;;;;;;;;;;;;;32.70;21.68;100904.81;5031629;28;20055;-66
2022/07/15 11:00:46;;;;;;;2.80;1.50;;;;;;;33.03;21.18;100902.53;5031280;28;19928;-65
2022/07/15 11:03:15;;;;;;;3.33;1.38;;;;;;;32.78;21.05;100902.50;5029404;28;20076;-65
2022/07/15 11:06:01;;;;;;;3.33;1.65;;;;;;;32.25;21.80;100897.00;5022157;28;20375;-66
2022/07/15 11:08:49;;;;;;;4.72;1.73;;;;;;;31.61;22.66;100899.53;5021980;28;20045;-65
2022/07/15 11:11:49;;;;;;;3.20;1.38;;;;;;;31.09;23.66;100899.06;5019913;28;20053;-66
2022/07/15 11:14:43;;;;;;;3.63;1.50;;;;;;;30.47;23.20;100893.03;5027527;28;20049;-66
2022/07/15 11:17:11;;;;;;;3.25;1.20;;;;;;;30.08;24.18;100891.69;5027820;28;20061;-66
2022/07/15 11:19:40;;;;;;;6.03;1.83;;;;;;;30.38;23.88;100889.09;5020783;28;20041;-66
2022/07/15 11:22:10;;;;;;;3.63;1.20;;;;;;;31.01;23.44;100882.44;5018671;28;20121;-65
2022/07/15 11:24:37;;;;;;;13.63;2.45;;;;;;;30.92;22.94;100894.56;5026412;28;20065;-65
2022/07/15 11:27:06;;;;;;;7.25;1.58;;;;;;;30.66;23.60;100896.31;5043911;28;20055;-65
2022/07/15 11:29:48;;;;;;;4.80;1.25;;;;;;;30.50;24.06;100885.56;5071167;28;20052;-66
2022/07/15 11:32:17;;;;;;;2.88;1.20;;;;;;;30.54;23.92;100889.19;5074412;28;20051;-66
2022/07/15 11:34:46;;;;;;;5.90;1.40;;;;;;;30.62;23.27;100884.91;5073996;28;20056;-66
2022/07/15 11:37:18;;;;;;;4.07;1.20;;;;;;;30.42;24.26;100881.22;5071646;28;20056;-67
2022/07/15 11:39:47;;;;;;;3.80;1.20;;;;;;;30.39;23.96;100882.91;5066237;28;20049;-66
2022/07/15 11:45:11;;;;;;;4.07;1.10;;;;;;;29.34;25.30;100883.13;5065989;28;20497;-65
2022/07/15 11:47:52;;;;;;;5.07;1.55;;;;;;;28.88;26.06;100873.13;5073469;28;20052;-65